createdAt,value
2022-12-08T00:01:19.519Z,2.72
2022-12-08T00:03:47.204Z,2.72
2022-12-08T00:06:43.358Z,2.70
2022-12-08T00:09:26.808Z,2.72
2022-12-08T00:12:00.371Z,2.73
2022-12-08T00:14:36.230Z,2.74
2022-12-08T00:17:04.602Z,2.70
2022-12-08T00:19:32.058Z,2.69
2022-12-08T00:21:59.525Z,2.68
2022-12-08T00:24:31.418Z,2.66
2022-12-08T00:26:58.498Z,2.73
2022-12-08T00:29:25.334Z,2.77
2022-12-08T00:31:52.836Z,2.81
2022-12-08T00:34:20.557Z,2.84
2022-12-08T00:36:47.628Z,2.82
2022-12-08T00:39:16.676Z,2.85
2022-12-08T00:42:02.319Z,2.85
2022-12-08T00:44:29.337Z,2.80
2022-12-08T00:46:56.187Z,2.77
2022-12-08T00:49:23.295Z,2.78
2022-12-08T00:51:50.153Z,2.77
2022-12-08T00:54:18.024Z,2.79
2022-12-08T00:56:44.935Z,2.75
2022-12-08T00:59:11.890Z,2.76
2022-12-08T01:01:38.835Z,2.80
2022-12-08T01:04:07.457Z,2.74
2022-12-08T01:06:35.699Z,2.77
2022-12-08T01:09:04.932Z,2.82
2022-12-08T01:11:33.062Z,2.87
2022-12-08T01:13:59.924Z,2.88
2022-12-08T01:16:31.001Z,2.87
2022-12-08T01:18:59.557Z,2.91
2022-12-08T01:21:27.480Z,2.91
2022-12-08T01:23:55.518Z,2.90
2022-12-08T01:26:22.732Z,2.94
2022-12-08T01:28:49.732Z,2.95
2022-12-08T01:31:20.164Z,2.93
2022-12-08T01:33:48.319Z,2.97
2022-12-08T01:36:25.223Z,2.95
2022-12-08T01:38:53.624Z,2.96
2022-12-08T01:41:24.162Z,2.98
2022-12-08T01:44:14.057Z,2.95
2022-12-08T01:46:44.796Z,2.98
2022-12-08T01:49:24.988Z,3.01
2022-12-08T01:52:02.873Z,2.99
2022-12-08T01:54:34.647Z,2.96
2022-12-08T01:57:11.749Z,3.01
2022-12-08T01:59:49.836Z,3.02
2022-12-08T02:02:16.861Z,3.09
2022-12-08T02:04:43.948Z,3.10
2022-12-08T02:07:14.482Z,3.06
2022-12-08T02:09:42.782Z,3.07
2022-12-08T02:12:11.110Z,3.04
2022-12-08T02:14:38.497Z,3.06
2022-12-08T02:17:31.935Z,3.05
2022-12-08T02:20:31.249Z,3.12
2022-12-08T02:23:08.237Z,3.12
2022-12-08T02:26:31.778Z,3.07
2022-12-08T02:29:27.612Z,3.11
2022-12-08T02:32:12.488Z,3.10
2022-12-08T02:35:09.379Z,3.12
2022-12-08T02:38:01.454Z,3.14
2022-12-08T02:40:37.251Z,3.13
2022-12-08T02:43:14.413Z,3.13
2022-12-08T02:45:54.058Z,3.14
2022-12-08T02:48:21.402Z,3.13
2022-12-08T02:50:48.444Z,3.13
2022-12-08T02:55:57.808Z,3.10
2022-12-08T02:58:43.493Z,3.13
2022-12-08T03:01:35.549Z,3.12
2022-12-08T03:04:22.126Z,3.18
2022-12-08T03:07:02.653Z,3.17
2022-12-08T03:09:34.052Z,3.18
2022-12-08T03:12:20.495Z,3.13
2022-12-08T03:14:53.633Z,3.18
2022-12-08T03:17:26.139Z,3.21
2022-12-08T03:19:54.986Z,3.25
2022-12-08T03:22:25.804Z,3.26
2022-12-08T03:24:54.664Z,3.25
2022-12-08T03:27:26.664Z,3.28
2022-12-08T03:29:55.671Z,3.27
2022-12-08T03:32:27.515Z,3.26
2022-12-08T03:34:58.418Z,3.28
2022-12-08T03:37:27.409Z,3.28
2022-12-08T03:39:54.604Z,3.29
2022-12-08T03:42:21.684Z,3.27
2022-12-08T03:44:48.615Z,3.30
2022-12-08T03:47:15.456Z,3.30
2022-12-08T03:49:42.306Z,3.32
2022-12-08T03:52:09.326Z,3.31
2022-12-08T03:54:36.396Z,3.32
2022-12-08T03:57:03.284Z,3.30
2022-12-08T03:59:30.199Z,3.33
2022-12-08T04:01:57.206Z,3.32
2022-12-08T04:04:24.119Z,3.28
2022-12-08T04:06:51.308Z,3.31
2022-12-08T04:09:18.374Z,3.30
2022-12-08T04:11:45.386Z,3.31
2022-12-08T04:14:12.440Z,3.33
2022-12-08T04:16:39.463Z,3.31
2022-12-08T04:19:06.571Z,3.36
2022-12-08T04:21:33.727Z,3.35
2022-12-08T04:24:01.494Z,3.37
2022-12-08T04:26:29.162Z,3.35
2022-12-08T04:28:56.191Z,3.37
2022-12-08T04:31:23.121Z,3.38
2022-12-08T04:33:50.050Z,3.39
2022-12-08T04:36:17.047Z,3.40
2022-12-08T04:38:44.124Z,3.38
2022-12-08T04:41:11.169Z,3.36
2022-12-08T04:43:38.173Z,3.37
2022-12-08T04:46:08.930Z,3.41
2022-12-08T04:48:40.797Z,3.38
2022-12-08T04:51:16.174Z,3.39
2022-12-08T04:53:46.695Z,3.38
2022-12-08T04:56:19.054Z,3.39
2022-12-08T04:58:46.947Z,3.41
2022-12-08T05:01:14.422Z,3.38
2022-12-08T05:03:41.615Z,3.36
2022-12-08T05:06:12.281Z,3.40
2022-12-08T05:08:39.361Z,3.36
2022-12-08T05:11:09.017Z,3.40
2022-12-08T05:13:35.984Z,3.39
2022-12-08T05:16:12.569Z,3.44
2022-12-08T05:18:41.179Z,3.43
2022-12-08T05:21:08.468Z,3.45
2022-12-08T05:23:36.003Z,3.47
2022-12-08T05:26:03.091Z,3.47
2022-12-08T05:28:41.290Z,3.43
2022-12-08T05:31:09.314Z,3.45
2022-12-08T05:33:36.404Z,3.47
2022-12-08T05:36:03.521Z,3.47
2022-12-08T05:38:30.846Z,3.45
2022-12-08T05:40:58.483Z,3.46
2022-12-08T05:43:25.598Z,3.47
2022-12-08T05:45:52.818Z,3.47
2022-12-08T05:48:19.857Z,3.48
2022-12-08T05:50:48.255Z,3.50
2022-12-08T05:53:16.747Z,3.45
2022-12-08T05:55:44.406Z,3.46
2022-12-08T05:58:15.618Z,3.47
2022-12-08T06:00:42.578Z,3.45
2022-12-08T06:03:12.178Z,3.44
2022-12-08T06:05:41.378Z,3.44
2022-12-08T06:08:09.216Z,3.43
2022-12-08T06:10:39.077Z,3.49
2022-12-08T06:13:06.114Z,3.45
2022-12-08T06:15:39.702Z,3.45
2022-12-08T06:18:07.711Z,3.43
2022-12-08T06:20:35.101Z,3.44
2022-12-08T06:23:03.357Z,3.50
2022-12-08T06:25:30.471Z,3.50
2022-12-08T06:27:57.523Z,3.49
2022-12-08T06:30:24.471Z,3.48
2022-12-08T06:32:51.473Z,3.53
2022-12-08T06:35:18.303Z,3.52
2022-12-08T06:37:45.140Z,3.54
2022-12-08T06:40:12.324Z,3.44
2022-12-08T06:42:45.145Z,3.47
2022-12-08T06:45:17.730Z,3.41
2022-12-08T06:47:45.009Z,3.38
2022-12-08T06:50:13.503Z,3.37
2022-12-08T06:52:50.828Z,3.33
2022-12-08T06:55:50.836Z,3.31
2022-12-08T06:58:10.307Z,3.29
2022-12-08T07:00:37.650Z,3.27
2022-12-08T07:03:04.676Z,3.28
2022-12-08T07:05:31.718Z,3.22
2022-12-08T07:07:58.832Z,3.19
2022-12-08T07:10:25.806Z,3.13
2022-12-08T07:12:52.986Z,3.07
2022-12-08T07:15:20.004Z,3.06
2022-12-08T07:17:53.599Z,3.06
2022-12-08T07:20:23.202Z,3.05
2022-12-08T07:22:51.548Z,3.05
2022-12-08T07:25:19.255Z,3.06
2022-12-08T07:27:46.505Z,3.13
2022-12-08T07:30:14.006Z,3.11
2022-12-08T07:32:40.888Z,3.08
2022-12-08T07:35:08.901Z,3.12
2022-12-08T07:37:37.561Z,3.13
2022-12-08T07:40:06.886Z,3.13
2022-12-08T07:42:34.585Z,3.16
2022-12-08T07:45:02.196Z,3.18
2022-12-08T07:47:29.228Z,3.16
2022-12-08T07:49:56.344Z,3.18
2022-12-08T07:52:23.334Z,3.12
2022-12-08T07:54:50.261Z,3.11
2022-12-08T07:57:17.436Z,3.09
2022-12-08T07:59:44.393Z,3.07
2022-12-08T08:02:35.957Z,3.09
2022-12-08T08:05:03.305Z,3.07
2022-12-08T08:08:00.265Z,3.07
2022-12-08T08:10:24.586Z,3.09
2022-12-08T08:14:45.554Z,3.05
2022-12-08T08:17:19.684Z,3.07
2022-12-08T08:19:47.563Z,3.11
2022-12-08T08:22:20.276Z,3.12
2022-12-08T08:24:55.624Z,3.13
2022-12-08T08:27:23.042Z,3.12
2022-12-08T08:29:50.090Z,3.13
2022-12-08T08:32:17.157Z,3.19
2022-12-08T08:34:44.031Z,3.17
2022-12-08T08:37:11.011Z,3.23
2022-12-08T08:39:38.097Z,3.28
2022-12-08T08:42:05.255Z,3.31
2022-12-08T08:44:32.350Z,3.33
2022-12-08T08:46:59.380Z,3.39
2022-12-08T08:49:26.590Z,3.45
2022-12-08T08:51:53.536Z,3.50
2022-12-08T08:54:20.394Z,3.56
2022-12-08T08:56:48.204Z,3.50
2022-12-08T08:59:15.268Z,3.60
2022-12-08T09:01:42.218Z,3.58
2022-12-08T09:04:10.114Z,3.49
2022-12-08T09:06:37.319Z,3.50
2022-12-08T09:09:05.417Z,3.54
2022-12-08T09:11:33.046Z,3.46
2022-12-08T09:13:59.965Z,3.41
2022-12-08T09:16:27.198Z,3.46
2022-12-08T09:18:54.249Z,3.47
2022-12-08T09:21:25.723Z,3.45
2022-12-08T09:23:56.125Z,3.40
2022-12-08T09:26:24.741Z,3.50
2022-12-08T09:28:53.964Z,3.47
2022-12-08T09:31:22.829Z,3.38
2022-12-08T09:33:53.640Z,3.32
2022-12-08T09:36:20.793Z,3.31
2022-12-08T09:38:49.080Z,3.33
2022-12-08T09:41:40.224Z,3.43
2022-12-08T09:44:25.450Z,3.31
2022-12-08T09:46:54.467Z,3.41
2022-12-08T09:49:35.424Z,3.43
2022-12-08T09:52:04.326Z,3.45
2022-12-08T09:54:35.847Z,3.52
2022-12-08T09:57:13.136Z,3.52
2022-12-08T09:59:41.281Z,3.55
2022-12-08T10:02:24.382Z,3.60
2022-12-08T10:04:55.292Z,3.54
2022-12-08T10:07:22.533Z,3.64
2022-12-08T10:10:07.987Z,3.70
2022-12-08T10:12:51.905Z,3.64
2022-12-08T10:15:39.798Z,3.76
2022-12-08T10:18:17.900Z,3.64
2022-12-08T10:20:48.411Z,3.79
2022-12-08T10:23:32.908Z,3.79
2022-12-08T10:26:12.427Z,3.89
2022-12-08T10:28:44.729Z,3.88
2022-12-08T10:31:24.551Z,3.81
2022-12-08T10:33:59.984Z,3.62
2022-12-08T10:36:52.246Z,3.54
2022-12-08T10:39:33.094Z,3.58
2022-12-08T10:42:04.187Z,3.53
2022-12-08T10:44:31.104Z,3.50
2022-12-08T10:46:58.478Z,3.51
2022-12-08T10:49:32.251Z,3.49
2022-12-08T10:51:59.395Z,3.55
2022-12-08T10:54:33.495Z,3.50
2022-12-08T10:57:00.676Z,3.58
2022-12-08T10:59:27.944Z,3.56
2022-12-08T11:01:57.083Z,3.58
2022-12-08T11:04:42.187Z,3.63
2022-12-08T11:07:13.655Z,3.59
2022-12-08T11:09:49.408Z,3.61
2022-12-08T11:12:19.422Z,3.55
2022-12-08T11:14:56.131Z,3.59
2022-12-08T11:17:22.927Z,3.57
2022-12-08T11:20:18.939Z,3.45
2022-12-08T11:22:54.974Z,3.53
2022-12-08T11:25:27.609Z,3.40
2022-12-08T11:27:59.993Z,3.28
2022-12-08T11:30:47.539Z,3.47
2022-12-08T11:33:23.521Z,3.43
2022-12-08T11:36:03.600Z,3.39
2022-12-08T11:38:33.755Z,3.40
2022-12-08T11:41:14.174Z,3.59
2022-12-08T11:44:01.110Z,3.39
2022-12-08T11:46:36.764Z,3.55
2022-12-08T11:49:13.097Z,3.45
2022-12-08T11:51:40.070Z,3.43
2022-12-08T11:54:24.138Z,3.56
2022-12-08T11:56:57.366Z,3.69
2022-12-08T11:59:32.243Z,4.03
2022-12-08T12:02:02.617Z,4.17
2022-12-08T12:04:47.464Z,4.22
2022-12-08T12:07:42.325Z,4.08
2022-12-08T12:10:21.255Z,3.79
2022-12-08T12:13:25.230Z,3.71
2022-12-08T12:16:39.219Z,3.89
2022-12-08T12:19:14.653Z,3.69
2022-12-08T12:21:52.903Z,3.85
2022-12-08T12:24:35.546Z,3.92
2022-12-08T12:27:07.840Z,3.95
2022-12-08T12:29:39.182Z,4.00
2022-12-08T12:32:10.020Z,3.92
2022-12-08T12:34:48.982Z,3.75
2022-12-08T12:37:25.324Z,3.62
2022-12-08T12:39:52.422Z,3.71
2022-12-08T12:43:09.662Z,3.55
2022-12-08T12:45:43.372Z,3.55
2022-12-08T12:48:22.433Z,3.64
2022-12-08T12:50:55.058Z,3.61
2022-12-08T12:53:21.895Z,3.53
2022-12-08T12:56:03.839Z,3.59
2022-12-08T12:58:30.860Z,3.46
2022-12-08T13:01:12.962Z,3.48
2022-12-08T13:03:51.837Z,3.51
2022-12-08T13:06:32.316Z,3.62
2022-12-08T13:09:00.428Z,3.67
2022-12-08T13:11:27.663Z,3.63
2022-12-08T13:14:04.671Z,3.66
2022-12-08T13:16:39.885Z,3.57
2022-12-08T13:19:16.117Z,3.51
2022-12-08T13:21:43.016Z,3.54
2022-12-08T13:24:30.803Z,3.58
2022-12-08T13:27:03.908Z,3.58
2022-12-08T13:29:32.696Z,3.65
2022-12-08T13:32:04.922Z,3.75
2022-12-08T13:34:54.881Z,3.76
2022-12-08T13:37:50.716Z,3.75
2022-12-08T13:40:27.339Z,3.80
2022-12-08T13:43:16.254Z,3.74
2022-12-08T13:46:48.662Z,3.82
2022-12-08T13:57:36.707Z,3.67
2022-12-08T14:00:16.093Z,3.72
2022-12-08T14:02:49.337Z,3.74
2022-12-08T14:05:34.683Z,3.86
2022-12-08T14:08:36.301Z,3.63
2022-12-08T14:11:33.535Z,3.71
2022-12-08T14:14:45.832Z,3.59
2022-12-08T14:17:15.536Z,3.67
2022-12-08T14:19:44.884Z,3.50
2022-12-08T14:22:15.776Z,3.54
2022-12-08T14:24:47.841Z,3.47
2022-12-08T14:27:24.096Z,3.44
2022-12-08T14:29:59.959Z,3.43
2022-12-08T14:32:34.098Z,3.35
2022-12-08T14:35:06.721Z,3.38
2022-12-08T14:37:42.422Z,3.35
2022-12-08T14:40:22.711Z,3.30
2022-12-08T14:43:07.909Z,3.32
2022-12-08T14:45:47.123Z,3.33
2022-12-08T14:48:39.024Z,3.32
2022-12-08T14:51:08.842Z,3.41
2022-12-08T14:53:40.243Z,3.36
2022-12-08T14:56:31.537Z,3.34
2022-12-08T14:59:16.367Z,3.36
2022-12-08T15:01:45.112Z,3.44
2022-12-08T15:04:12.021Z,3.42
2022-12-08T15:07:00.566Z,3.39
2022-12-08T15:09:35.207Z,3.41
2022-12-08T15:12:05.004Z,3.41
2022-12-08T15:14:34.703Z,3.40
2022-12-08T15:17:01.740Z,3.34
2022-12-08T15:19:31.651Z,3.31
2022-12-08T15:22:13.597Z,3.39
2022-12-08T15:24:40.640Z,3.39
2022-12-08T15:27:10.627Z,3.41
2022-12-08T15:29:37.690Z,3.38
2022-12-08T15:32:05.896Z,3.34
2022-12-08T15:34:32.910Z,3.28
2022-12-08T15:36:59.797Z,3.35
2022-12-08T15:39:39.236Z,3.34
2022-12-08T15:42:14.911Z,3.32
2022-12-08T15:44:41.928Z,3.30
2022-12-08T15:47:19.806Z,3.33
2022-12-08T15:49:49.481Z,3.34
2022-12-08T15:52:20.854Z,3.33
2022-12-08T15:54:49.015Z,3.31
2022-12-08T15:57:53.557Z,3.38
2022-12-08T16:00:51.763Z,3.36
2022-12-08T16:04:09.006Z,3.40
2022-12-08T16:09:13.588Z,3.39
2022-12-08T16:12:08.874Z,3.35
2022-12-08T16:17:27.240Z,3.35
2022-12-08T16:19:55.150Z,3.40
2022-12-08T16:25:18.668Z,3.33
2022-12-08T16:30:33.954Z,3.37
2022-12-08T16:33:01.065Z,3.32
2022-12-08T16:35:27.977Z,3.31
2022-12-08T16:37:55.107Z,3.37
2022-12-08T16:40:22.063Z,3.32
2022-12-08T16:42:50.295Z,3.31
2022-12-08T16:45:24.873Z,3.32
2022-12-08T16:47:55.011Z,3.29
2022-12-08T16:50:28.716Z,3.33
2022-12-08T16:52:59.417Z,3.35
2022-12-08T16:55:27.406Z,3.31
2022-12-08T16:57:55.186Z,3.28
2022-12-08T17:00:24.925Z,3.23
2022-12-08T17:02:53.321Z,3.24
2022-12-08T17:05:22.318Z,3.24
2022-12-08T17:07:51.289Z,3.18
2022-12-08T17:10:23.033Z,3.19
2022-12-08T17:12:51.359Z,3.15
2022-12-08T17:15:21.575Z,3.22
2022-12-08T17:17:48.896Z,3.15
2022-12-08T17:20:20.037Z,3.09
2022-12-08T17:22:47.477Z,3.10
2022-12-08T17:25:15.500Z,3.06
2022-12-08T17:27:42.782Z,3.02
2022-12-08T17:30:14.876Z,2.93
2022-12-08T17:32:43.021Z,2.84
2022-12-08T17:35:14.236Z,2.83
2022-12-08T17:37:42.912Z,2.79
2022-12-08T17:40:12.756Z,2.72
2022-12-08T17:42:42.811Z,2.69
2022-12-08T17:45:10.219Z,2.62
2022-12-08T17:47:37.291Z,2.59
2022-12-08T17:50:06.405Z,2.58
2022-12-08T17:52:34.019Z,2.59
2022-12-08T17:55:00.889Z,2.65
2022-12-08T17:57:27.797Z,2.68
2022-12-08T17:59:54.701Z,2.65
2022-12-08T18:02:21.788Z,2.52
2022-12-08T18:04:48.670Z,2.39
2022-12-08T18:07:15.599Z,2.25
2022-12-08T18:09:42.456Z,2.14
2022-12-08T18:12:09.277Z,2.01
2022-12-08T18:14:36.312Z,1.94
2022-12-08T18:17:03.515Z,1.84
2022-12-08T18:19:30.712Z,1.68
2022-12-08T18:21:57.808Z,1.63
2022-12-08T18:24:24.915Z,1.56
2022-12-08T18:26:52.593Z,1.49
2022-12-08T18:29:20.775Z,1.41
2022-12-08T18:31:48.033Z,1.39
2022-12-08T18:34:15.138Z,1.42
2022-12-08T18:36:42.026Z,1.34
2022-12-08T18:39:24.422Z,1.31
2022-12-08T18:41:52.654Z,1.32
2022-12-08T18:44:20.139Z,1.32
2022-12-08T18:46:47.778Z,1.31
2022-12-08T18:49:18.632Z,1.39
2022-12-08T18:51:46.074Z,1.43
2022-12-08T18:54:13.784Z,1.38
2022-12-08T18:56:40.737Z,1.39
2022-12-08T18:59:11.761Z,1.35
2022-12-08T19:01:40.644Z,1.28
2022-12-08T19:04:27.785Z,1.22
2022-12-08T19:06:55.503Z,1.21
2022-12-08T19:09:22.831Z,1.28
2022-12-08T19:11:50.049Z,1.37
2022-12-08T19:14:18.405Z,1.53
2022-12-08T19:16:48.175Z,1.63
2022-12-08T19:19:15.260Z,1.71
2022-12-08T19:21:46.339Z,1.84
2022-12-08T19:24:13.744Z,1.91
2022-12-08T19:26:40.672Z,1.93
2022-12-08T19:29:07.775Z,1.85
2022-12-08T19:31:35.227Z,1.89
2022-12-08T19:34:02.287Z,1.78
2022-12-08T19:36:35.198Z,1.73
2022-12-08T19:39:21.730Z,1.54
2022-12-08T19:42:07.815Z,1.50
2022-12-08T19:44:52.612Z,1.58
2022-12-08T19:47:23.698Z,1.65
2022-12-08T19:49:51.641Z,1.65
2022-12-08T19:52:18.863Z,1.67
2022-12-08T19:54:46.384Z,1.60
2022-12-08T19:57:13.516Z,1.60
2022-12-08T19:59:40.487Z,1.64
2022-12-08T20:02:07.541Z,1.71
2022-12-08T20:04:34.743Z,1.71
2022-12-08T20:07:02.076Z,1.69
2022-12-08T20:09:29.019Z,1.69
2022-12-08T20:11:56.093Z,1.63
2022-12-08T20:14:23.476Z,1.56
2022-12-08T20:16:50.744Z,1.43
2022-12-08T20:19:18.607Z,1.29
2022-12-08T20:21:45.944Z,1.13
2022-12-08T20:24:13.033Z,1.02
2022-12-08T20:26:40.029Z,0.99
2022-12-08T20:29:07.095Z,0.99
2022-12-08T20:31:34.341Z,1.06
2022-12-08T20:34:01.880Z,1.16
2022-12-08T20:36:29.375Z,1.26
2022-12-08T20:38:57.435Z,1.36
2022-12-08T20:41:24.617Z,1.48
2022-12-08T20:43:52.122Z,1.57
2022-12-08T20:46:21.082Z,1.63
2022-12-08T20:48:48.408Z,1.63
2022-12-08T20:51:18.821Z,1.70
2022-12-08T20:53:46.451Z,1.74
2022-12-08T20:56:17.953Z,1.76
2022-12-08T20:58:45.111Z,1.71
2022-12-08T21:01:14.993Z,1.80
2022-12-08T21:03:44.163Z,1.81
2022-12-08T21:06:12.735Z,1.84
2022-12-08T21:08:41.885Z,1.83
2022-12-08T21:11:10.006Z,1.85
2022-12-08T21:13:37.941Z,1.88
2022-12-08T21:16:06.008Z,1.92
2022-12-08T21:18:38.945Z,1.94
2022-12-08T21:21:10.671Z,1.94
2022-12-08T21:23:37.557Z,1.94
2022-12-08T21:26:18.692Z,1.94
2022-12-08T21:28:46.965Z,1.95
2022-12-08T21:31:16.489Z,1.97
2022-12-08T21:33:43.487Z,1.99
2022-12-08T21:36:13.717Z,1.99
2022-12-08T21:38:42.670Z,2.01
2022-12-08T21:41:16.236Z,2.03
2022-12-08T21:43:43.302Z,2.01
2022-12-08T21:46:17.187Z,2.02
2022-12-08T21:48:44.617Z,2.02
2022-12-08T21:51:11.652Z,1.99
2022-12-08T21:53:38.630Z,2.00
2022-12-08T21:56:09.579Z,2.03
2022-12-08T21:58:36.701Z,2.01
2022-12-08T22:01:11.897Z,2.04
2022-12-08T22:03:39.970Z,2.04
2022-12-08T22:06:13.120Z,2.06
2022-12-08T22:08:41.233Z,2.07
2022-12-08T22:11:08.450Z,2.04
2022-12-08T22:13:36.279Z,2.02
2022-12-08T22:16:06.158Z,1.97
2022-12-08T22:18:34.944Z,1.98
2022-12-08T22:21:07.258Z,2.04
2022-12-08T22:23:34.604Z,2.08
2022-12-08T22:26:03.369Z,2.09
2022-12-08T22:28:33.975Z,2.08
2022-12-08T22:31:08.204Z,2.05
2022-12-08T22:33:35.775Z,2.11
2022-12-08T22:36:10.082Z,2.07
2022-12-08T22:38:37.957Z,2.05
2022-12-08T22:41:06.080Z,2.08
2022-12-08T22:43:34.125Z,2.06
2022-12-08T22:46:01.620Z,2.07
2022-12-08T22:48:29.007Z,2.06
2022-12-08T22:51:00.675Z,2.06
2022-12-08T22:53:28.612Z,2.10
2022-12-08T22:55:55.609Z,2.05
2022-12-08T22:58:22.787Z,2.07
2022-12-08T23:00:50.508Z,2.08
2022-12-08T23:03:17.819Z,2.07
2022-12-08T23:05:45.072Z,2.02
2022-12-08T23:08:15.958Z,2.07
2022-12-08T23:10:44.745Z,2.10
2022-12-08T23:13:14.049Z,2.03
2022-12-08T23:15:41.351Z,2.03
2022-12-08T23:18:12.443Z,2.06
2022-12-08T23:20:39.474Z,2.13
2022-12-08T23:23:06.935Z,2.09
2022-12-08T23:25:33.988Z,2.08
2022-12-08T23:28:01.031Z,2.14
2022-12-08T23:30:28.159Z,2.13
2022-12-08T23:32:56.361Z,2.18
2022-12-08T23:35:23.292Z,2.19
2022-12-08T23:37:50.365Z,2.14
2022-12-08T23:40:17.700Z,2.15
2022-12-08T23:42:44.809Z,2.23
2022-12-08T23:45:12.049Z,2.14
2022-12-08T23:47:38.990Z,2.19
2022-12-08T23:50:07.453Z,2.20
2022-12-08T23:52:35.371Z,2.19
2022-12-08T23:55:02.871Z,2.16
2022-12-08T23:57:30.077Z,2.23
2022-12-08T23:59:57.127Z,2.27
